createdAt,value
2022-10-05T00:01:28.647Z,101568.28
2022-10-05T00:04:23.986Z,101566.66
2022-10-05T00:07:09.321Z,101559.47
2022-10-05T00:09:45.993Z,101572.84
2022-10-05T00:12:21.989Z,101561.31
2022-10-05T00:15:01.119Z,101564.78
2022-10-05T00:17:33.617Z,101557.78
2022-10-05T00:20:26.818Z,101557.78
2022-10-05T00:23:07.444Z,101556.06
2022-10-05T00:25:39.966Z,101541.81
2022-10-05T00:28:27.662Z,101547.09
2022-10-05T00:31:01.017Z,101551.53
2022-10-05T00:33:33.486Z,101549.84
2022-10-05T00:36:07.459Z,101546.34
2022-10-05T00:38:41.256Z,101548.19
2022-10-05T00:41:30.276Z,101534.78
2022-10-05T00:44:35.162Z,101542.94
2022-10-05T00:47:43.637Z,101538.47
2022-10-05T00:50:54.066Z,101547.31
2022-10-05T00:53:54.534Z,101546.41
2022-10-05T00:57:15.426Z,101542.13
2022-10-05T01:00:01.378Z,101543.00
2022-10-05T01:02:49.027Z,101540.28
2022-10-05T01:05:45.897Z,101543.03
2022-10-05T01:09:02.706Z,101535.88
2022-10-05T01:11:50.786Z,101536.00
2022-10-05T01:14:45.686Z,101529.81
2022-10-05T01:17:40.032Z,101515.63
2022-10-05T01:20:27.373Z,101505.94
2022-10-05T01:23:14.686Z,101512.91
2022-10-05T01:26:31.025Z,101518.22
2022-10-05T01:29:34.520Z,101505.09
2022-10-05T01:32:41.631Z,101505.84
2022-10-05T01:35:47.289Z,101503.28
2022-10-05T01:38:35.365Z,101506.75
2022-10-05T01:41:19.562Z,101505.84
2022-10-05T01:44:01.589Z,101501.47
2022-10-05T01:46:56.685Z,101489.91
2022-10-05T01:49:46.008Z,101504.09
2022-10-05T01:52:53.904Z,101497.00
2022-10-05T01:55:48.851Z,101491.75
2022-10-05T01:58:55.508Z,101478.50
2022-10-05T02:01:44.146Z,101487.38
2022-10-05T02:05:05.983Z,101473.22
2022-10-05T02:07:40.249Z,101478.50
2022-10-05T02:10:28.906Z,101465.25
2022-10-05T02:13:47.970Z,101459.94
2022-10-05T02:16:38.214Z,101468.03
2022-10-05T02:19:46.292Z,101456.50
2022-10-05T02:22:30.616Z,101460.00
2022-10-05T02:25:14.006Z,101453.78
2022-10-05T02:27:59.988Z,101459.94
2022-10-05T02:30:41.966Z,101448.38
2022-10-05T02:33:28.452Z,101442.16
2022-10-05T02:36:23.741Z,101443.00
2022-10-05T02:39:20.908Z,101437.75
2022-10-05T02:42:23.687Z,101431.47
2022-10-05T02:45:26.234Z,101422.56
2022-10-05T02:48:45.540Z,101421.84
2022-10-05T02:51:50.213Z,101412.88
2022-10-05T02:54:58.532Z,101421.88
2022-10-05T02:58:07.843Z,101421.88
2022-10-05T03:01:16.526Z,101420.19
2022-10-05T03:04:21.615Z,101413.16
2022-10-05T03:07:32.814Z,101415.88
2022-10-05T03:10:29.499Z,101408.88
2022-10-05T03:13:26.093Z,101406.22
2022-10-05T03:16:32.832Z,101399.13
2022-10-05T03:19:37.038Z,101407.19
2022-10-05T03:22:32.768Z,101400.13
2022-10-05T03:25:17.970Z,101396.66
2022-10-05T03:28:08.814Z,101395.81
2022-10-05T03:31:02.198Z,101397.53
2022-10-05T03:33:59.489Z,101399.41
2022-10-05T03:36:46.460Z,101405.56
2022-10-05T03:39:36.925Z,101404.66
2022-10-05T03:42:59.050Z,101409.00
2022-10-05T03:45:48.680Z,101393.94
2022-10-05T03:48:37.661Z,101393.91
2022-10-05T03:51:23.544Z,101390.44
2022-10-05T03:54:49.098Z,101400.06
2022-10-05T03:57:29.662Z,101394.69
2022-10-05T04:00:16.002Z,101399.09
2022-10-05T04:03:02.187Z,101403.56
2022-10-05T04:06:33.402Z,101398.22
2022-10-05T04:09:27.618Z,101399.94
2022-10-05T04:12:35.908Z,101400.00
2022-10-05T04:15:23.717Z,101400.84
2022-10-05T04:18:26.948Z,101410.69
2022-10-05T04:21:23.479Z,101410.63
2022-10-05T04:24:11.973Z,101403.56
2022-10-05T04:27:06.063Z,101399.22
2022-10-05T04:29:57.094Z,101395.56
2022-10-05T04:32:53.661Z,101399.97
2022-10-05T04:36:02.249Z,101392.06
2022-10-05T04:38:54.947Z,101388.44
2022-10-05T04:42:13.100Z,101382.28
2022-10-05T04:45:36.280Z,101376.06
2022-10-05T04:48:44.582Z,101377.78
2022-10-05T04:55:07.987Z,101380.38
2022-10-05T04:58:09.557Z,101380.38
2022-10-05T05:01:12.953Z,101372.31
2022-10-05T05:04:26.184Z,101364.31
2022-10-05T05:07:14.133Z,101370.47
2022-10-05T05:10:10.773Z,101380.25
2022-10-05T05:13:24.552Z,101369.56
2022-10-05T05:16:07.451Z,101373.13
2022-10-05T05:19:16.317Z,101371.31
2022-10-05T05:22:04.178Z,101370.41
2022-10-05T05:25:14.098Z,101367.09
2022-10-05T05:28:38.356Z,101362.56
2022-10-05T05:31:58.362Z,101370.53
2022-10-05T05:35:43.957Z,101367.94
2022-10-05T05:38:47.002Z,101365.28
2022-10-05T05:41:40.965Z,101356.47
2022-10-05T05:44:29.215Z,101359.09
2022-10-05T05:47:07.767Z,101350.25
2022-10-05T05:50:18.251Z,101351.13
2022-10-05T05:52:58.650Z,101344.91
2022-10-05T05:56:04.477Z,101347.63
2022-10-05T05:59:17.697Z,101341.34
2022-10-05T06:02:06.039Z,101351.84
2022-10-05T06:04:47.984Z,101352.75
2022-10-05T06:07:30.750Z,101346.53
2022-10-05T06:10:21.622Z,101349.19
2022-10-05T06:13:03.177Z,101347.38
2022-10-05T06:15:49.443Z,101346.47
2022-10-05T06:18:23.337Z,101349.13
2022-10-05T06:21:11.523Z,101343.72
2022-10-05T06:24:01.174Z,101330.38
2022-10-05T06:27:24.451Z,101342.72
2022-10-05T06:30:15.777Z,101338.34
2022-10-05T06:33:19.652Z,101335.56
2022-10-05T06:36:14.784Z,101337.31
2022-10-05T06:38:59.860Z,101332.00
2022-10-05T06:42:20.048Z,101339.88
2022-10-05T06:45:28.844Z,101336.25
2022-10-05T06:48:35.343Z,101351.28
2022-10-05T06:51:23.491Z,101342.34
2022-10-05T06:54:19.868Z,101339.69
2022-10-05T06:57:09.190Z,101344.00
2022-10-05T07:00:07.369Z,101352.56
2022-10-05T07:03:27.206Z,101342.75
2022-10-05T07:06:14.192Z,101350.56
2022-10-05T07:09:33.123Z,101346.00
2022-10-05T07:12:53.807Z,101349.44
2022-10-05T07:15:42.103Z,101336.78
2022-10-05T07:19:10.077Z,101342.72
2022-10-05T07:22:08.937Z,101352.41
2022-10-05T07:25:19.074Z,101342.34
2022-10-05T07:28:20.040Z,101345.00
2022-10-05T07:31:03.731Z,101353.59
2022-10-05T07:33:46.193Z,101350.06
2022-10-05T07:36:45.144Z,101352.59
2022-10-05T07:39:59.222Z,101348.84
2022-10-05T07:42:51.802Z,101351.38
2022-10-05T07:45:47.872Z,101346.59
2022-10-05T07:48:43.289Z,101352.66
2022-10-05T07:51:35.089Z,101354.09
2022-10-05T07:54:49.178Z,101358.53
2022-10-05T07:58:00.549Z,101360.38
2022-10-05T08:00:49.240Z,101358.34
2022-10-05T08:03:54.929Z,101352.88
2022-10-05T08:06:57.117Z,101353.44
2022-10-05T08:09:59.414Z,101356.75
2022-10-05T08:12:53.467Z,101350.03
2022-10-05T08:15:35.368Z,101348.09
2022-10-05T08:19:08.356Z,101345.53
2022-10-05T08:21:55.423Z,101338.03
2022-10-05T08:24:45.741Z,101340.97
2022-10-05T08:27:52.346Z,101333.91
2022-10-05T08:30:25.038Z,101327.97
2022-10-05T08:33:14.699Z,101330.28
2022-10-05T08:36:10.638Z,101323.16
2022-10-05T08:38:43.901Z,101317.63
2022-10-05T08:41:58.225Z,101325.25
2022-10-05T08:44:49.755Z,101321.63
2022-10-05T08:48:07.787Z,101317.28
2022-10-05T08:51:22.601Z,101315.94
2022-10-05T08:54:35.645Z,101314.91
2022-10-05T08:57:46.781Z,101321.78
2022-10-05T09:00:51.855Z,101316.53
2022-10-05T09:04:16.694Z,101313.75
2022-10-05T09:07:07.392Z,101299.44
2022-10-05T09:10:20.532Z,101309.25
2022-10-05T09:13:25.059Z,101298.97
2022-10-05T09:16:06.639Z,101303.47
2022-10-05T09:19:06.231Z,101294.75
2022-10-05T09:21:43.548Z,101295.06
2022-10-05T09:25:12.330Z,101289.41
2022-10-05T09:28:18.697Z,101291.97
2022-10-05T09:31:06.391Z,101303.75
2022-10-05T09:34:19.783Z,101290.38
2022-10-05T09:37:07.396Z,101292.69
2022-10-05T09:40:35.302Z,101298.19
2022-10-05T09:43:17.849Z,101293.47
2022-10-05T09:46:17.632Z,101293.47
2022-10-05T09:49:19.232Z,101283.72
2022-10-05T09:52:41.034Z,101283.81
2022-10-05T09:56:15.285Z,101279.50
2022-10-05T09:59:18.855Z,101275.09
2022-10-05T10:02:23.208Z,101273.59
2022-10-05T10:05:29.965Z,101265.88
2022-10-05T10:08:39.665Z,101264.69
2022-10-05T10:11:43.003Z,101255.63
2022-10-05T10:15:07.628Z,101258.41
2022-10-05T10:18:02.179Z,101256.97
2022-10-05T10:21:20.802Z,101252.63
2022-10-05T10:24:16.982Z,101247.53
2022-10-05T10:27:16.670Z,101243.25
2022-10-05T10:30:05.535Z,101247.28
2022-10-05T10:33:15.799Z,101243.94
2022-10-05T10:36:21.717Z,101239.63
2022-10-05T10:39:25.803Z,101235.56
2022-10-05T10:43:16.017Z,101234.97
2022-10-05T10:46:29.843Z,101231.88
2022-10-05T10:49:47.787Z,101224.97
2022-10-05T10:52:35.728Z,101220.56
2022-10-05T10:55:46.628Z,101218.50
2022-10-05T10:59:17.379Z,101216.88
2022-10-05T11:02:33.289Z,101200.91
2022-10-05T11:05:37.229Z,101203.06
2022-10-05T11:09:03.727Z,101200.97
2022-10-05T11:12:05.610Z,101201.88
2022-10-05T11:14:58.535Z,101203.63
2022-10-05T11:17:51.856Z,101194.88
2022-10-05T11:20:38.002Z,101193.94
2022-10-05T11:24:05.973Z,101197.81
2022-10-05T11:27:16.133Z,101194.25
2022-10-05T11:30:38.565Z,101186.75
2022-10-05T11:34:13.597Z,101182.44
2022-10-05T11:37:56.303Z,101170.88
2022-10-05T11:41:10.657Z,101160.22
2022-10-05T11:44:11.252Z,101156.66
2022-10-05T11:47:00.867Z,101164.25
2022-10-05T11:50:05.447Z,101148.44
2022-10-05T11:53:11.148Z,101145.78
2022-10-05T11:56:03.725Z,101142.84
2022-10-05T11:58:54.591Z,101136.25
2022-10-05T12:01:44.714Z,101131.78
2022-10-05T12:04:36.652Z,101119.72
2022-10-05T12:07:36.069Z,101122.56
2022-10-05T12:10:44.550Z,101113.19
2022-10-05T12:13:38.052Z,101115.03
2022-10-05T12:16:44.239Z,101111.72
2022-10-05T12:19:29.377Z,101111.78
2022-10-05T12:22:37.406Z,101112.59
2022-10-05T12:25:25.674Z,101103.66
2022-10-05T12:28:08.379Z,101105.00
2022-10-05T12:31:14.925Z,101098.84
2022-10-05T12:34:25.161Z,101090.06
2022-10-05T12:37:29.923Z,101086.59
2022-10-05T12:40:15.225Z,101092.69
2022-10-05T12:42:59.629Z,101089.16
2022-10-05T12:45:56.338Z,101084.03
2022-10-05T12:49:34.202Z,101094.78
2022-10-05T12:52:37.268Z,101094.72
2022-10-05T12:55:21.705Z,101094.28
2022-10-05T12:58:06.609Z,101100.47
2022-10-05T13:00:53.041Z,101099.72
2022-10-05T13:03:40.081Z,101091.59
2022-10-05T13:06:29.946Z,101090.53
2022-10-05T13:09:34.770Z,101097.72
2022-10-05T13:12:23.779Z,101096.94
2022-10-05T13:15:31.466Z,101092.38
2022-10-05T13:18:44.284Z,101085.75
2022-10-05T13:21:47.242Z,101088.13
2022-10-05T13:25:03.925Z,101083.19
2022-10-05T13:27:52.332Z,101094.16
2022-10-05T13:30:25.039Z,101083.69
2022-10-05T13:33:13.873Z,101092.53
2022-10-05T13:36:11.526Z,101092.53
2022-10-05T13:39:05.563Z,101096.97
2022-10-05T13:41:57.194Z,101088.16
2022-10-05T13:44:43.390Z,101102.41
2022-10-05T13:47:57.975Z,101115.41
2022-10-05T13:50:34.951Z,101111.56
2022-10-05T13:53:37.107Z,101124.44
2022-10-05T13:56:28.835Z,101115.34
2022-10-05T13:59:35.204Z,101105.63
2022-10-05T14:02:12.539Z,101118.34
2022-10-05T14:05:02.090Z,101112.53
2022-10-05T14:07:50.959Z,101110.31
2022-10-05T14:10:38.195Z,101109.00
2022-10-05T14:13:44.137Z,101106.75
2022-10-05T14:16:16.538Z,101122.09
2022-10-05T14:19:22.832Z,101121.66
2022-10-05T14:22:24.932Z,101135.88
2022-10-05T14:25:09.608Z,101125.41
2022-10-05T14:28:25.063Z,101127.91
2022-10-05T14:31:03.572Z,101123.97
2022-10-05T14:33:36.853Z,101137.97
2022-10-05T14:36:22.433Z,101145.16
2022-10-05T14:39:00.816Z,101143.25
2022-10-05T14:41:39.049Z,101143.25
2022-10-05T14:44:23.471Z,101151.00
2022-10-05T14:47:11.962Z,101165.28
2022-10-05T14:50:13.944Z,101165.66
2022-10-05T14:53:17.219Z,101186.63
2022-10-05T14:56:17.097Z,101194.34
2022-10-05T14:59:28.101Z,101210.03
2022-10-05T15:02:53.804Z,101231.22
2022-10-05T15:05:41.368Z,101212.66
2022-10-05T15:08:41.398Z,101217.13
2022-10-05T15:11:37.435Z,101240.41
2022-10-05T15:14:32.768Z,101242.94
2022-10-05T15:17:20.219Z,101247.25
2022-10-05T15:20:06.155Z,101253.84
2022-10-05T15:23:11.269Z,101259.19
2022-10-05T15:26:29.291Z,101244.88
2022-10-05T15:29:38.160Z,101239.59
2022-10-05T15:32:42.033Z,101236.13
2022-10-05T15:35:40.891Z,101235.13
2022-10-05T15:38:21.261Z,101237.25
2022-10-05T15:41:15.905Z,101232.44
2022-10-05T15:44:13.996Z,101219.22
2022-10-05T15:47:10.354Z,101212.50
2022-10-05T15:49:51.479Z,101232.97
2022-10-05T15:52:43.767Z,101221.47
2022-10-05T15:55:38.700Z,101221.59
2022-10-05T15:59:02.400Z,101224.81
2022-10-05T16:01:34.862Z,101227.63
2022-10-05T16:04:30.112Z,101242.06
2022-10-05T16:07:22.092Z,101237.63
2022-10-05T16:10:17.998Z,101246.00
2022-10-05T16:13:10.060Z,101234.47
2022-10-05T16:15:57.053Z,101232.75
2022-10-05T16:19:04.310Z,101230.25
2022-10-05T16:21:58.178Z,101240.69
2022-10-05T16:24:49.228Z,101254.22
2022-10-05T16:28:17.738Z,101257.94
2022-10-05T16:31:03.764Z,101259.84
2022-10-05T16:34:07.924Z,101252.72
2022-10-05T16:37:09.797Z,101252.63
2022-10-05T16:39:58.797Z,101261.91
2022-10-05T16:43:05.523Z,101262.72
2022-10-05T16:46:02.501Z,101259.94
2022-10-05T16:49:16.524Z,101264.47
2022-10-05T16:52:04.970Z,101269.75
2022-10-05T16:54:52.647Z,101277.84
2022-10-05T16:57:31.050Z,101281.38
2022-10-05T17:00:25.109Z,101280.63
2022-10-05T17:03:21.750Z,101286.91
2022-10-05T17:06:42.632Z,101270.81
2022-10-05T17:09:39.158Z,101286.09
2022-10-05T17:12:53.746Z,101285.25
2022-10-05T17:16:04.163Z,101277.09
2022-10-05T17:19:32.733Z,101286.91
2022-10-05T17:22:37.851Z,101278.06
2022-10-05T17:25:45.936Z,101281.53
2022-10-05T17:28:18.870Z,101286.19
2022-10-05T17:31:22.232Z,101287.91
2022-10-05T17:34:26.396Z,101279.91
2022-10-05T17:37:35.082Z,101289.66
2022-10-05T17:40:29.601Z,101295.06
2022-10-05T17:43:14.222Z,101294.13
2022-10-05T17:45:46.652Z,101297.69
2022-10-05T17:48:47.225Z,101306.63
2022-10-05T17:51:47.738Z,101307.38
2022-10-05T17:55:10.877Z,101308.31
2022-10-05T17:57:43.415Z,101312.69
2022-10-05T18:01:04.387Z,101316.34
2022-10-05T18:03:51.542Z,101316.34
2022-10-05T18:06:28.350Z,101321.56
2022-10-05T18:09:36.151Z,101319.81
2022-10-05T18:12:28.249Z,101315.34
2022-10-05T18:15:06.842Z,101322.38
2022-10-05T18:17:46.527Z,101335.75
2022-10-05T18:20:27.695Z,101327.59
2022-10-05T18:23:03.520Z,101335.63
2022-10-05T18:25:55.989Z,101334.63
2022-10-05T18:29:14.133Z,101332.03
2022-10-05T18:32:01.261Z,101332.03
2022-10-05T18:34:50.763Z,101337.38
2022-10-05T18:37:54.742Z,101342.66
2022-10-05T18:40:37.576Z,101346.13
2022-10-05T18:43:24.326Z,101343.41
2022-10-05T18:46:17.088Z,101338.88
2022-10-05T18:49:04.352Z,101339.84
2022-10-05T18:52:06.798Z,101339.94
2022-10-05T18:55:02.403Z,101351.47
2022-10-05T18:58:09.414Z,101341.66
2022-10-05T19:01:19.576Z,101342.41
2022-10-05T19:04:18.889Z,101345.94
2022-10-05T19:07:04.776Z,101360.09
2022-10-05T19:10:37.959Z,101366.38
2022-10-05T19:13:46.967Z,101371.75
2022-10-05T19:17:06.082Z,101376.88
2022-10-05T19:20:34.017Z,101371.47
2022-10-05T19:23:26.171Z,101380.06
2022-10-05T19:26:21.820Z,101393.31
2022-10-05T19:29:35.153Z,101397.69
2022-10-05T19:32:26.988Z,101394.91
2022-10-05T19:35:25.284Z,101404.78
2022-10-05T19:38:44.615Z,101401.09
2022-10-05T19:41:37.886Z,101423.69
2022-10-05T19:45:03.786Z,101457.38
2022-10-05T19:47:47.353Z,101474.56
2022-10-05T19:50:37.575Z,101479.19
2022-10-05T19:53:24.787Z,101473.00
2022-10-05T19:56:22.758Z,101489.97
2022-10-05T19:58:57.481Z,101484.09
2022-10-05T20:01:41.764Z,101490.50
2022-10-05T20:04:43.283Z,101490.88
2022-10-05T20:07:23.012Z,101483.94
2022-10-05T20:09:58.179Z,101494.63
2022-10-05T20:12:58.320Z,101491.22
2022-10-05T20:15:52.518Z,101489.34
2022-10-05T20:19:01.930Z,101503.72
2022-10-05T20:21:50.980Z,101506.31
2022-10-05T20:24:29.651Z,101513.38
2022-10-05T20:27:06.163Z,101519.63
2022-10-05T20:29:45.055Z,101520.34
2022-10-05T20:32:18.162Z,101515.88
2022-10-05T20:34:51.112Z,101539.81
2022-10-05T20:37:24.859Z,101552.22
2022-10-05T20:39:57.347Z,101551.34
2022-10-05T20:42:30.070Z,101559.34
2022-10-05T20:45:03.381Z,101561.09
2022-10-05T20:47:37.609Z,101566.44
2022-10-05T20:50:11.050Z,101569.19
2022-10-05T20:52:43.765Z,101569.16
2022-10-05T20:55:16.319Z,101584.31
2022-10-05T20:57:48.974Z,101587.00
2022-10-05T21:00:21.565Z,101587.91
2022-10-05T21:02:54.098Z,101591.44
2022-10-05T21:05:26.691Z,101603.84
2022-10-05T21:07:59.240Z,101607.41
2022-10-05T21:10:31.751Z,101636.78
2022-10-05T21:13:04.842Z,101654.00
2022-10-05T21:15:38.271Z,101672.44
2022-10-05T21:18:10.741Z,101696.38
2022-10-05T21:20:46.501Z,101682.69
2022-10-05T21:23:19.004Z,101711.41
2022-10-05T21:25:51.477Z,101708.09
2022-10-05T21:28:24.232Z,101694.06
2022-10-05T21:30:56.964Z,101710.38
2022-10-05T21:33:29.839Z,101717.72
2022-10-05T21:36:03.117Z,101713.47
2022-10-05T21:38:35.744Z,101714.53
2022-10-05T21:41:08.626Z,101713.75
2022-10-05T21:43:41.637Z,101706.78
2022-10-05T21:46:22.827Z,101712.34
2022-10-05T21:48:55.900Z,101718.56
2022-10-05T21:51:28.479Z,101719.59
2022-10-05T21:54:12.073Z,101719.75
2022-10-05T21:56:55.520Z,101728.66
2022-10-05T21:59:34.172Z,101728.72
2022-10-05T22:02:07.283Z,101727.00
2022-10-05T22:04:39.887Z,101748.28
2022-10-05T22:07:20.324Z,101752.75
2022-10-05T22:09:52.914Z,101761.63
2022-10-05T22:12:26.353Z,101759.03
2022-10-05T22:14:58.969Z,101760.81
2022-10-05T22:17:32.092Z,101770.59
2022-10-05T22:20:05.181Z,101775.00
2022-10-05T22:22:37.715Z,101775.94
2022-10-05T22:25:10.207Z,101783.06
2022-10-05T22:27:42.980Z,101784.00
2022-10-05T22:30:15.758Z,101797.41
2022-10-05T22:32:48.514Z,101801.00
2022-10-05T22:35:20.987Z,101807.28
2022-10-05T22:37:53.497Z,101808.25
2022-10-05T22:40:26.091Z,101827.78
2022-10-05T22:42:58.603Z,101831.38
2022-10-05T22:45:32.740Z,101837.66
2022-10-05T22:48:06.036Z,101843.88
2022-10-05T22:50:38.545Z,101844.78
2022-10-05T22:53:12.448Z,101839.53
2022-10-05T22:55:45.028Z,101851.00
2022-10-05T22:58:17.542Z,101850.13
2022-10-05T23:00:58.703Z,101854.59
2022-10-05T23:03:32.460Z,101865.22
2022-10-05T23:06:11.358Z,101874.13
2022-10-05T23:08:44.822Z,101876.84
2022-10-05T23:11:25.635Z,101879.53
2022-10-05T23:13:58.576Z,101882.22
2022-10-05T23:16:31.204Z,101878.75
2022-10-05T23:19:03.750Z,101882.28
2022-10-05T23:21:36.409Z,101884.97
2022-10-05T23:24:08.906Z,101900.88
2022-10-05T23:26:41.462Z,101900.03
2022-10-05T23:29:13.985Z,101899.13
2022-10-05T23:31:46.573Z,101911.53
2022-10-05T23:34:19.098Z,101915.03
2022-10-05T23:36:51.581Z,101909.72
2022-10-05T23:39:24.093Z,101921.19
2022-10-05T23:41:56.621Z,101926.50
2022-10-05T23:44:29.125Z,101931.84
2022-10-05T23:47:01.612Z,101940.66
2022-10-05T23:49:34.156Z,101946.03
2022-10-05T23:52:06.669Z,101951.34
2022-10-05T23:54:39.174Z,101958.44
2022-10-05T23:57:17.728Z,101961.97
2022-10-05T23:59:50.358Z,101972.59
